sensor_id;sensor_type;location;lat;lon;timestamp;P1;durP1;ratioP1;P2;durP2;ratioP2
41167;SDS011;26906;45.658;9.272;2022-12-07T06:38:54;24.52;;;9.23;;
41167;SDS011;26906;45.658;9.272;2022-12-07T06:41:21;23.85;;;10.35;;
41167;SDS011;26906;45.658;9.272;2022-12-07T06:43:47;13.27;;;9.60;;
41167;SDS011;26906;45.658;9.272;2022-12-07T06:46:13;22.63;;;9.73;;
41167;SDS011;26906;45.658;9.272;2022-12-07T06:48:40;14.98;;;9.98;;
41167;SDS011;26906;45.658;9.272;2022-12-07T06:51:09;17.05;;;12.63;;
41167;SDS011;26906;45.658;9.272;2022-12-07T06:53:35;26.52;;;10.68;;
41167;SDS011;26906;45.658;9.272;2022-12-07T06:56:01;19.55;;;10.75;;
41167;SDS011;26906;45.658;9.272;2022-12-07T06:58:27;25.48;;;11.70;;
41167;SDS011;26906;45.658;9.272;2022-12-07T07:00:53;25.25;;;11.02;;
41167;SDS011;26906;45.658;9.272;2022-12-07T07:03:19;25.08;;;11.57;;
41167;SDS011;26906;45.658;9.272;2022-12-07T07:05:45;23.67;;;11.90;;
41167;SDS011;26906;45.658;9.272;2022-12-07T07:08:11;21.45;;;11.57;;
41167;SDS011;26906;45.658;9.272;2022-12-07T07:10:37;20.65;;;10.95;;
41167;SDS011;26906;45.658;9.272;2022-12-07T07:13:02;22.20;;;10.38;;
41167;SDS011;26906;45.658;9.272;2022-12-07T07:15:30;16.33;;;10.00;;
41167;SDS011;26906;45.658;9.272;2022-12-07T07:17:57;18.25;;;10.45;;
41167;SDS011;26906;45.658;9.272;2022-12-07T07:20:23;14.15;;;9.65;;
41167;SDS011;26906;45.658;9.272;2022-12-07T07:22:50;18.55;;;9.73;;
41167;SDS011;26906;45.658;9.272;2022-12-07T07:25:18;15.80;;;9.48;;
41167;SDS011;26906;45.658;9.272;2022-12-07T07:27:44;15.70;;;9.40;;
41167;SDS011;26906;45.658;9.272;2022-12-07T07:30:10;19.42;;;9.75;;
41167;SDS011;26906;45.658;9.272;2022-12-07T07:32:36;15.45;;;9.60;;
41167;SDS011;26906;45.658;9.272;2022-12-07T07:35:02;17.77;;;10.55;;
41167;SDS011;26906;45.658;9.272;2022-12-07T07:37:28;22.20;;;12.13;;
41167;SDS011;26906;45.658;9.272;2022-12-07T07:39:54;16.98;;;10.65;;
41167;SDS011;26906;45.658;9.272;2022-12-07T07:42:20;20.63;;;11.40;;
41167;SDS011;26906;45.658;9.272;2022-12-07T07:44:45;19.83;;;11.63;;
41167;SDS011;26906;45.658;9.272;2022-12-07T07:47:12;28.75;;;11.52;;
41167;SDS011;26906;45.658;9.272;2022-12-07T07:49:37;22.13;;;12.77;;
41167;SDS011;26906;45.658;9.272;2022-12-07T07:52:04;23.33;;;12.70;;
41167;SDS011;26906;45.658;9.272;2022-12-07T07:54:31;22.05;;;13.80;;
41167;SDS011;26906;45.658;9.272;2022-12-07T07:56:57;23.83;;;12.45;;
41167;SDS011;26906;45.658;9.272;2022-12-07T07:59:23;22.20;;;12.52;;
41167;SDS011;26906;45.658;9.272;2022-12-07T08:01:49;30.08;;;11.13;;
41167;SDS011;26906;45.658;9.272;2022-12-07T08:04:16;19.30;;;11.40;;
41167;SDS011;26906;45.658;9.272;2022-12-07T08:06:43;25.65;;;11.43;;
41167;SDS011;26906;45.658;9.272;2022-12-07T08:09:09;19.55;;;11.77;;
41167;SDS011;26906;45.658;9.272;2022-12-07T08:11:35;22.20;;;12.27;;
41167;SDS011;26906;45.658;9.272;2022-12-07T08:14:03;20.52;;;11.65;;
41167;SDS011;26906;45.658;9.272;2022-12-07T08:16:29;30.65;;;12.50;;
41167;SDS011;26906;45.658;9.272;2022-12-07T08:18:54;18.75;;;11.52;;
41167;SDS011;26906;45.658;9.272;2022-12-07T08:21:21;14.32;;;11.23;;
41167;SDS011;26906;45.658;9.272;2022-12-07T08:23:47;17.75;;;11.35;;
41167;SDS011;26906;45.658;9.272;2022-12-07T08:26:15;19.88;;;11.40;;
41167;SDS011;26906;45.658;9.272;2022-12-07T08:28:42;20.55;;;12.65;;
41167;SDS011;26906;45.658;9.272;2022-12-07T08:31:14;23.60;;;13.27;;
41167;SDS011;26906;45.658;9.272;2022-12-07T08:33:43;18.48;;;10.73;;
41167;SDS011;26906;45.658;9.272;2022-12-07T08:36:11;18.27;;;11.75;;
41167;SDS011;26906;45.658;9.272;2022-12-07T08:38:38;30.77;;;12.80;;
41167;SDS011;26906;45.658;9.272;2022-12-07T08:41:05;21.13;;;12.48;;
41167;SDS011;26906;45.658;9.272;2022-12-07T08:43:31;18.00;;;12.13;;
41167;SDS011;26906;45.658;9.272;2022-12-07T08:48:54;41.10;;;16.33;;
41167;SDS011;26906;45.658;9.272;2022-12-07T08:51:24;36.17;;;16.33;;
41167;SDS011;26906;45.658;9.272;2022-12-07T08:53:50;27.80;;;15.75;;
41167;SDS011;26906;45.658;9.272;2022-12-07T08:56:17;26.20;;;15.68;;
41167;SDS011;26906;45.658;9.272;2022-12-07T08:58:43;30.58;;;16.42;;
41167;SDS011;26906;45.658;9.272;2022-12-07T09:01:09;33.55;;;17.70;;
41167;SDS011;26906;45.658;9.272;2022-12-07T09:03:36;32.63;;;18.77;;
41167;SDS011;26906;45.658;9.272;2022-12-07T09:06:02;27.95;;;17.35;;
41167;SDS011;26906;45.658;9.272;2022-12-07T09:08:30;30.67;;;17.85;;
41167;SDS011;26906;45.658;9.272;2022-12-07T09:10:59;31.05;;;17.48;;
41167;SDS011;26906;45.658;9.272;2022-12-07T09:13:24;35.95;;;19.50;;
41167;SDS011;26906;45.658;9.272;2022-12-07T09:15:50;34.63;;;19.90;;
41167;SDS011;26906;45.658;9.272;2022-12-07T09:18:16;31.98;;;19.58;;
41167;SDS011;26906;45.658;9.272;2022-12-07T09:20:41;37.38;;;20.08;;
41167;SDS011;26906;45.658;9.272;2022-12-07T09:23:07;34.20;;;19.45;;
41167;SDS011;26906;45.658;9.272;2022-12-07T09:25:36;32.85;;;19.70;;
41167;SDS011;26906;45.658;9.272;2022-12-07T09:28:01;32.63;;;19.20;;
41167;SDS011;26906;45.658;9.272;2022-12-07T09:30:27;35.03;;;19.95;;
41167;SDS011;26906;45.658;9.272;2022-12-07T09:32:55;37.85;;;20.40;;
41167;SDS011;26906;45.658;9.272;2022-12-07T09:35:23;35.20;;;20.02;;
41167;SDS011;26906;45.658;9.272;2022-12-07T09:37:50;33.97;;;20.40;;
41167;SDS011;26906;45.658;9.272;2022-12-07T09:40:16;39.25;;;20.70;;
41167;SDS011;26906;45.658;9.272;2022-12-07T09:42:45;31.55;;;21.67;;
41167;SDS011;26906;45.658;9.272;2022-12-07T09:45:25;30.40;;;20.48;;
41167;SDS011;26906;45.658;9.272;2022-12-07T09:47:58;33.58;;;20.05;;
41167;SDS011;26906;45.658;9.272;2022-12-07T09:50:26;28.05;;;17.88;;
41167;SDS011;26906;45.658;9.272;2022-12-07T09:52:53;29.85;;;17.77;;
41167;SDS011;26906;45.658;9.272;2022-12-07T09:55:33;32.13;;;19.40;;
41167;SDS011;26906;45.658;9.272;2022-12-07T09:58:03;31.45;;;19.02;;
41167;SDS011;26906;45.658;9.272;2022-12-07T10:00:30;32.40;;;19.98;;
41167;SDS011;26906;45.658;9.272;2022-12-07T10:02:56;28.27;;;20.58;;
41167;SDS011;26906;45.658;9.272;2022-12-07T10:07:53;40.60;;;21.05;;
41167;SDS011;26906;45.658;9.272;2022-12-07T10:10:21;38.10;;;21.40;;
41167;SDS011;26906;45.658;9.272;2022-12-07T10:12:54;26.95;;;18.90;;
41167;SDS011;26906;45.658;9.272;2022-12-07T10:15:40;28.00;;;16.60;;
41167;SDS011;26906;45.658;9.272;2022-12-07T10:23:42;30.23;;;18.63;;
41167;SDS011;26906;45.658;9.272;2022-12-07T10:29:23;30.98;;;19.17;;
41167;SDS011;26906;45.658;9.272;2022-12-07T10:32:04;31.83;;;19.30;;
41167;SDS011;26906;45.658;9.272;2022-12-07T10:34:50;29.85;;;19.55;;
41167;SDS011;26906;45.658;9.272;2022-12-07T10:37:41;30.05;;;19.02;;
41167;SDS011;26906;45.658;9.272;2022-12-07T10:40:23;29.13;;;19.88;;
41167;SDS011;26906;45.658;9.272;2022-12-07T10:43:00;28.52;;;20.35;;
41167;SDS011;26906;45.658;9.272;2022-12-07T10:45:34;31.83;;;20.30;;
41167;SDS011;26906;45.658;9.272;2022-12-07T10:51:00;33.92;;;21.02;;
41167;SDS011;26906;45.658;9.272;2022-12-07T10:53:48;31.58;;;20.65;;
41167;SDS011;26906;45.658;9.272;2022-12-07T10:56:35;27.90;;;20.63;;
41167;SDS011;26906;45.658;9.272;2022-12-07T10:59:39;29.07;;;18.83;;
41167;SDS011;26906;45.658;9.272;2022-12-07T11:07:44;23.30;;;15.52;;
41167;SDS011;26906;45.658;9.272;2022-12-07T11:15:30;20.50;;;14.60;;
41167;SDS011;26906;45.658;9.272;2022-12-07T11:23:35;25.38;;;14.02;;
41167;SDS011;26906;45.658;9.272;2022-12-07T11:26:31;19.73;;;14.65;;
41167;SDS011;26906;45.658;9.272;2022-12-07T11:32:34;26.13;;;16.30;;
41167;SDS011;26906;45.658;9.272;2022-12-07T11:38:11;24.10;;;18.85;;
41167;SDS011;26906;45.658;9.272;2022-12-07T11:40:37;26.00;;;19.25;;
41167;SDS011;26906;45.658;9.272;2022-12-07T11:48:32;25.40;;;17.00;;
41167;SDS011;26906;45.658;9.272;2022-12-07T11:51:10;29.08;;;19.23;;
41167;SDS011;26906;45.658;9.272;2022-12-07T11:57:01;26.23;;;19.33;;
41167;SDS011;26906;45.658;9.272;2022-12-07T11:59:31;26.92;;;18.55;;
41167;SDS011;26906;45.658;9.272;2022-12-07T12:04:49;29.38;;;18.67;;
41167;SDS011;26906;45.658;9.272;2022-12-07T12:07:22;33.17;;;19.23;;
41167;SDS011;26906;45.658;9.272;2022-12-07T12:09:52;28.83;;;19.75;;
41167;SDS011;26906;45.658;9.272;2022-12-07T12:20:55;27.98;;;20.38;;
41167;SDS011;26906;45.658;9.272;2022-12-07T12:26:23;25.95;;;20.60;;
41167;SDS011;26906;45.658;9.272;2022-12-07T12:31:47;27.98;;;19.80;;
41167;SDS011;26906;45.658;9.272;2022-12-07T12:34:38;26.95;;;19.48;;
41167;SDS011;26906;45.658;9.272;2022-12-07T12:42:51;29.90;;;19.60;;
41167;SDS011;26906;45.658;9.272;2022-12-07T12:45:28;28.27;;;19.48;;
41167;SDS011;26906;45.658;9.272;2022-12-07T12:55:53;25.58;;;18.00;;
41167;SDS011;26906;45.658;9.272;2022-12-07T12:58:34;32.10;;;18.20;;
41167;SDS011;26906;45.658;9.272;2022-12-07T13:04:14;28.92;;;19.10;;
41167;SDS011;26906;45.658;9.272;2022-12-07T13:06:45;26.67;;;18.73;;
41167;SDS011;26906;45.658;9.272;2022-12-07T13:09:19;37.83;;;19.17;;
41167;SDS011;26906;45.658;9.272;2022-12-07T13:11:48;23.92;;;18.55;;
41167;SDS011;26906;45.658;9.272;2022-12-07T13:19:57;24.35;;;18.02;;
41167;SDS011;26906;45.658;9.272;2022-12-07T13:22:44;28.58;;;18.67;;
41167;SDS011;26906;45.658;9.272;2022-12-07T13:27:43;33.28;;;17.90;;
41167;SDS011;26906;45.658;9.272;2022-12-07T13:30:19;27.83;;;16.75;;
41167;SDS011;26906;45.658;9.272;2022-12-07T13:32:53;23.25;;;15.90;;
41167;SDS011;26906;45.658;9.272;2022-12-07T13:37:53;31.83;;;16.17;;
41167;SDS011;26906;45.658;9.272;2022-12-07T13:40:19;20.33;;;14.82;;
41167;SDS011;26906;45.658;9.272;2022-12-07T13:42:57;24.50;;;15.52;;
41167;SDS011;26906;45.658;9.272;2022-12-07T13:45:28;23.08;;;16.52;;
41167;SDS011;26906;45.658;9.272;2022-12-07T13:48:14;21.08;;;15.32;;
41167;SDS011;26906;45.658;9.272;2022-12-07T13:53:20;22.80;;;14.98;;
41167;SDS011;26906;45.658;9.272;2022-12-07T13:55:46;19.30;;;14.88;;
41167;SDS011;26906;45.658;9.272;2022-12-07T13:58:13;25.85;;;15.48;;
41167;SDS011;26906;45.658;9.272;2022-12-07T14:00:42;23.25;;;15.57;;
41167;SDS011;26906;45.658;9.272;2022-12-07T14:05:37;20.80;;;15.98;;
41167;SDS011;26906;45.658;9.272;2022-12-07T14:10:40;33.92;;;16.10;;
41167;SDS011;26906;45.658;9.272;2022-12-07T14:13:30;25.75;;;15.65;;
41167;SDS011;26906;45.658;9.272;2022-12-07T14:16:00;22.58;;;15.50;;
41167;SDS011;26906;45.658;9.272;2022-12-07T14:18:28;21.50;;;15.25;;
41167;SDS011;26906;45.658;9.272;2022-12-07T14:23:44;42.92;;;26.80;;
41167;SDS011;26906;45.658;9.272;2022-12-07T14:26:11;37.63;;;24.20;;
41167;SDS011;26906;45.658;9.272;2022-12-07T14:28:44;23.23;;;17.83;;
41167;SDS011;26906;45.658;9.272;2022-12-07T14:33:44;26.13;;;17.38;;
41167;SDS011;26906;45.658;9.272;2022-12-07T14:36:13;24.50;;;16.45;;
41167;SDS011;26906;45.658;9.272;2022-12-07T14:38:40;27.38;;;17.00;;
41167;SDS011;26906;45.658;9.272;2022-12-07T14:41:06;23.88;;;17.27;;
41167;SDS011;26906;45.658;9.272;2022-12-07T14:43:58;27.98;;;17.95;;
41167;SDS011;26906;45.658;9.272;2022-12-07T14:46:24;25.80;;;17.27;;
41167;SDS011;26906;45.658;9.272;2022-12-07T14:48:51;33.40;;;20.42;;
41167;SDS011;26906;45.658;9.272;2022-12-07T14:51:20;29.83;;;19.75;;
41167;SDS011;26906;45.658;9.272;2022-12-07T14:53:50;24.38;;;18.02;;
41167;SDS011;26906;45.658;9.272;2022-12-07T14:56:18;30.33;;;19.85;;
41167;SDS011;26906;45.658;9.272;2022-12-07T14:58:44;34.45;;;21.67;;
41167;SDS011;26906;45.658;9.272;2022-12-07T15:01:09;27.15;;;19.60;;
41167;SDS011;26906;45.658;9.272;2022-12-07T15:03:35;30.63;;;19.67;;
41167;SDS011;26906;45.658;9.272;2022-12-07T15:06:03;33.60;;;19.27;;
41167;SDS011;26906;45.658;9.272;2022-12-07T15:08:30;31.08;;;19.10;;
41167;SDS011;26906;45.658;9.272;2022-12-07T15:10:55;27.92;;;19.00;;
41167;SDS011;26906;45.658;9.272;2022-12-07T15:13:21;31.98;;;18.73;;
41167;SDS011;26906;45.658;9.272;2022-12-07T15:16:07;26.70;;;19.05;;
41167;SDS011;26906;45.658;9.272;2022-12-07T15:18:36;38.50;;;20.70;;
41167;SDS011;26906;45.658;9.272;2022-12-07T15:21:02;34.97;;;20.33;;
41167;SDS011;26906;45.658;9.272;2022-12-07T15:23:28;31.13;;;20.55;;
41167;SDS011;26906;45.658;9.272;2022-12-07T15:25:53;35.60;;;21.20;;
41167;SDS011;26906;45.658;9.272;2022-12-07T15:28:19;33.58;;;20.95;;
41167;SDS011;26906;45.658;9.272;2022-12-07T15:30:45;34.45;;;22.30;;
41167;SDS011;26906;45.658;9.272;2022-12-07T15:33:11;33.65;;;23.40;;
41167;SDS011;26906;45.658;9.272;2022-12-07T15:35:38;36.95;;;24.23;;
41167;SDS011;26906;45.658;9.272;2022-12-07T15:38:06;36.00;;;24.27;;
41167;SDS011;26906;45.658;9.272;2022-12-07T15:40:32;41.47;;;25.73;;
41167;SDS011;26906;45.658;9.272;2022-12-07T15:43:00;40.20;;;25.23;;
41167;SDS011;26906;45.658;9.272;2022-12-07T15:45:26;43.88;;;25.85;;
41167;SDS011;26906;45.658;9.272;2022-12-07T15:47:51;49.47;;;26.40;;
41167;SDS011;26906;45.658;9.272;2022-12-07T15:50:17;42.67;;;27.75;;
41167;SDS011;26906;45.658;9.272;2022-12-07T15:52:43;43.40;;;27.60;;
41167;SDS011;26906;45.658;9.272;2022-12-07T15:55:11;43.90;;;25.95;;
41167;SDS011;26906;45.658;9.272;2022-12-07T15:57:38;38.92;;;26.15;;
41167;SDS011;26906;45.658;9.272;2022-12-07T16:00:04;35.78;;;25.98;;
41167;SDS011;26906;45.658;9.272;2022-12-07T16:02:31;36.88;;;27.27;;
41167;SDS011;26906;45.658;9.272;2022-12-07T16:04:57;41.15;;;27.70;;
41167;SDS011;26906;45.658;9.272;2022-12-07T16:07:22;40.97;;;26.85;;
41167;SDS011;26906;45.658;9.272;2022-12-07T16:09:48;50.20;;;30.05;;
41167;SDS011;26906;45.658;9.272;2022-12-07T16:12:15;42.42;;;29.15;;
41167;SDS011;26906;45.658;9.272;2022-12-07T16:14:41;41.70;;;30.25;;
41167;SDS011;26906;45.658;9.272;2022-12-07T16:17:07;40.17;;;28.80;;
41167;SDS011;26906;45.658;9.272;2022-12-07T16:19:33;42.45;;;30.45;;
41167;SDS011;26906;45.658;9.272;2022-12-07T16:21:59;39.67;;;30.40;;
41167;SDS011;26906;45.658;9.272;2022-12-07T16:24:25;40.42;;;31.60;;
41167;SDS011;26906;45.658;9.272;2022-12-07T16:26:52;47.63;;;33.35;;
41167;SDS011;26906;45.658;9.272;2022-12-07T16:29:19;45.47;;;33.08;;
41167;SDS011;26906;45.658;9.272;2022-12-07T16:31:46;45.00;;;33.40;;
41167;SDS011;26906;45.658;9.272;2022-12-07T16:34:12;63.58;;;34.80;;
41167;SDS011;26906;45.658;9.272;2022-12-07T16:36:42;79.15;;;44.53;;
41167;SDS011;26906;45.658;9.272;2022-12-07T16:39:09;83.28;;;48.53;;
41167;SDS011;26906;45.658;9.272;2022-12-07T16:41:35;103.07;;;53.85;;
41167;SDS011;26906;45.658;9.272;2022-12-07T16:44:05;68.90;;;41.47;;
41167;SDS011;26906;45.658;9.272;2022-12-07T16:46:33;59.80;;;36.10;;
41167;SDS011;26906;45.658;9.272;2022-12-07T16:49:00;60.00;;;37.90;;
41167;SDS011;26906;45.658;9.272;2022-12-07T16:51:28;54.40;;;38.03;;
41167;SDS011;26906;45.658;9.272;2022-12-07T16:53:54;51.60;;;39.92;;
41167;SDS011;26906;45.658;9.272;2022-12-07T16:56:21;67.18;;;45.85;;
41167;SDS011;26906;45.658;9.272;2022-12-07T16:58:47;51.60;;;35.20;;
41167;SDS011;26906;45.658;9.272;2022-12-07T17:01:21;49.85;;;34.58;;
41167;SDS011;26906;45.658;9.272;2022-12-07T17:03:48;48.15;;;33.40;;
41167;SDS011;26906;45.658;9.272;2022-12-07T17:06:18;53.38;;;33.65;;
41167;SDS011;26906;45.658;9.272;2022-12-07T17:08:44;55.17;;;38.45;;
41167;SDS011;26906;45.658;9.272;2022-12-07T17:11:14;51.80;;;36.63;;
41167;SDS011;26906;45.658;9.272;2022-12-07T17:13:43;53.00;;;35.53;;
41167;SDS011;26906;45.658;9.272;2022-12-07T17:16:43;51.00;;;31.98;;
41167;SDS011;26906;45.658;9.272;2022-12-07T17:19:10;44.72;;;33.25;;
41167;SDS011;26906;45.658;9.272;2022-12-07T17:21:40;43.80;;;31.70;;
41167;SDS011;26906;45.658;9.272;2022-12-07T17:24:09;45.55;;;31.10;;
41167;SDS011;26906;45.658;9.272;2022-12-07T17:26:37;49.67;;;33.17;;
41167;SDS011;26906;45.658;9.272;2022-12-07T17:29:04;54.90;;;34.83;;
41167;SDS011;26906;45.658;9.272;2022-12-07T17:31:33;48.03;;;35.50;;
41167;SDS011;26906;45.658;9.272;2022-12-07T17:34:00;51.70;;;35.78;;
41167;SDS011;26906;45.658;9.272;2022-12-07T17:36:26;61.35;;;37.13;;
41167;SDS011;26906;45.658;9.272;2022-12-07T17:38:54;55.08;;;36.45;;
41167;SDS011;26906;45.658;9.272;2022-12-07T17:41:22;70.90;;;44.35;;
41167;SDS011;26906;45.658;9.272;2022-12-07T17:44:11;57.38;;;39.80;;
41167;SDS011;26906;45.658;9.272;2022-12-07T17:46:39;64.43;;;43.85;;
41167;SDS011;26906;45.658;9.272;2022-12-07T17:49:07;106.28;;;66.10;;
41167;SDS011;26906;45.658;9.272;2022-12-07T17:51:34;178.15;;;101.10;;
41167;SDS011;26906;45.658;9.272;2022-12-07T17:54:20;112.50;;;68.07;;
41167;SDS011;26906;45.658;9.272;2022-12-07T17:56:46;85.15;;;56.72;;
41167;SDS011;26906;45.658;9.272;2022-12-07T17:59:12;89.28;;;60.40;;
41167;SDS011;26906;45.658;9.272;2022-12-07T18:01:40;74.78;;;49.30;;
41167;SDS011;26906;45.658;9.272;2022-12-07T18:04:06;79.38;;;51.97;;
41167;SDS011;26906;45.658;9.272;2022-12-07T18:06:34;79.85;;;52.35;;
41167;SDS011;26906;45.658;9.272;2022-12-07T18:09:02;71.30;;;46.10;;
41167;SDS011;26906;45.658;9.272;2022-12-07T18:11:29;74.85;;;48.05;;
41167;SDS011;26906;45.658;9.272;2022-12-07T18:13:55;63.05;;;42.25;;
41167;SDS011;26906;45.658;9.272;2022-12-07T18:16:22;74.32;;;46.10;;
41167;SDS011;26906;45.658;9.272;2022-12-07T18:18:49;64.75;;;43.20;;
41167;SDS011;26906;45.658;9.272;2022-12-07T18:21:24;61.70;;;41.15;;
41167;SDS011;26906;45.658;9.272;2022-12-07T18:23:53;63.33;;;43.55;;
41167;SDS011;26906;45.658;9.272;2022-12-07T18:26:23;66.93;;;43.65;;
41167;SDS011;26906;45.658;9.272;2022-12-07T18:28:50;62.33;;;44.38;;
41167;SDS011;26906;45.658;9.272;2022-12-07T18:31:16;65.35;;;43.53;;
41167;SDS011;26906;45.658;9.272;2022-12-07T18:33:43;64.78;;;47.80;;
41167;SDS011;26906;45.658;9.272;2022-12-07T18:36:10;61.45;;;40.67;;
41167;SDS011;26906;45.658;9.272;2022-12-07T18:38:36;67.93;;;43.25;;
41167;SDS011;26906;45.658;9.272;2022-12-07T18:41:02;66.00;;;42.22;;
41167;SDS011;26906;45.658;9.272;2022-12-07T18:43:28;55.28;;;39.97;;
41167;SDS011;26906;45.658;9.272;2022-12-07T18:45:54;55.10;;;38.53;;
41167;SDS011;26906;45.658;9.272;2022-12-07T18:48:22;65.35;;;42.38;;
41167;SDS011;26906;45.658;9.272;2022-12-07T18:50:58;55.17;;;39.28;;
41167;SDS011;26906;45.658;9.272;2022-12-07T18:53:25;54.22;;;39.03;;
41167;SDS011;26906;45.658;9.272;2022-12-07T18:58:27;60.78;;;41.55;;
41167;SDS011;26906;45.658;9.272;2022-12-07T19:00:54;59.88;;;39.80;;
41167;SDS011;26906;45.658;9.272;2022-12-07T19:03:21;65.18;;;44.13;;
41167;SDS011;26906;45.658;9.272;2022-12-07T19:05:50;67.80;;;45.58;;
41167;SDS011;26906;45.658;9.272;2022-12-07T19:08:16;59.00;;;42.55;;
41167;SDS011;26906;45.658;9.272;2022-12-07T19:10:43;56.25;;;39.47;;
41167;SDS011;26906;45.658;9.272;2022-12-07T19:13:08;51.65;;;37.13;;
41167;SDS011;26906;45.658;9.272;2022-12-07T19:15:38;58.38;;;42.50;;
41167;SDS011;26906;45.658;9.272;2022-12-07T19:18:05;58.65;;;37.80;;
41167;SDS011;26906;45.658;9.272;2022-12-07T19:20:31;54.78;;;39.15;;
41167;SDS011;26906;45.658;9.272;2022-12-07T19:23:01;69.20;;;44.88;;
41167;SDS011;26906;45.658;9.272;2022-12-07T19:25:26;71.50;;;44.60;;
41167;SDS011;26906;45.658;9.272;2022-12-07T19:27:52;71.15;;;50.58;;
41167;SDS011;26906;45.658;9.272;2022-12-07T19:30:18;75.03;;;48.60;;
41167;SDS011;26906;45.658;9.272;2022-12-07T19:32:44;95.82;;;64.03;;
41167;SDS011;26906;45.658;9.272;2022-12-07T19:35:11;79.30;;;53.75;;
41167;SDS011;26906;45.658;9.272;2022-12-07T19:37:37;75.68;;;50.22;;
41167;SDS011;26906;45.658;9.272;2022-12-07T19:40:04;77.10;;;49.65;;
41167;SDS011;26906;45.658;9.272;2022-12-07T19:42:30;72.88;;;49.50;;
41167;SDS011;26906;45.658;9.272;2022-12-07T19:45:00;71.15;;;49.45;;
41167;SDS011;26906;45.658;9.272;2022-12-07T19:47:27;75.82;;;53.40;;
41167;SDS011;26906;45.658;9.272;2022-12-07T19:49:54;73.22;;;47.10;;
41167;SDS011;26906;45.658;9.272;2022-12-07T19:52:21;62.15;;;42.08;;
41167;SDS011;26906;45.658;9.272;2022-12-07T19:54:47;62.85;;;40.28;;
41167;SDS011;26906;45.658;9.272;2022-12-07T19:57:14;61.72;;;42.65;;
41167;SDS011;26906;45.658;9.272;2022-12-07T19:59:42;58.40;;;40.00;;
41167;SDS011;26906;45.658;9.272;2022-12-07T20:02:11;56.80;;;41.50;;
41167;SDS011;26906;45.658;9.272;2022-12-07T20:04:38;57.83;;;39.63;;
41167;SDS011;26906;45.658;9.272;2022-12-07T20:07:04;53.42;;;37.63;;
41167;SDS011;26906;45.658;9.272;2022-12-07T20:09:30;54.83;;;39.70;;
41167;SDS011;26906;45.658;9.272;2022-12-07T20:11:56;52.72;;;40.15;;
41167;SDS011;26906;45.658;9.272;2022-12-07T20:14:57;54.00;;;37.97;;
41167;SDS011;26906;45.658;9.272;2022-12-07T20:17:23;52.72;;;36.55;;
41167;SDS011;26906;45.658;9.272;2022-12-07T20:19:49;53.90;;;36.25;;
41167;SDS011;26906;45.658;9.272;2022-12-07T20:22:17;54.22;;;37.30;;
41167;SDS011;26906;45.658;9.272;2022-12-07T20:24:43;59.97;;;39.95;;
41167;SDS011;26906;45.658;9.272;2022-12-07T20:27:10;59.10;;;38.65;;
41167;SDS011;26906;45.658;9.272;2022-12-07T20:29:36;61.70;;;37.40;;
41167;SDS011;26906;45.658;9.272;2022-12-07T20:32:01;56.20;;;39.05;;
41167;SDS011;26906;45.658;9.272;2022-12-07T20:34:28;60.55;;;40.38;;
41167;SDS011;26906;45.658;9.272;2022-12-07T20:36:54;57.78;;;41.00;;
41167;SDS011;26906;45.658;9.272;2022-12-07T20:39:20;56.88;;;40.05;;
41167;SDS011;26906;45.658;9.272;2022-12-07T20:41:48;56.65;;;38.35;;
41167;SDS011;26906;45.658;9.272;2022-12-07T20:44:33;54.20;;;38.85;;
41167;SDS011;26906;45.658;9.272;2022-12-07T20:46:59;62.97;;;40.17;;
41167;SDS011;26906;45.658;9.272;2022-12-07T20:49:25;55.55;;;41.35;;
41167;SDS011;26906;45.658;9.272;2022-12-07T20:51:51;58.92;;;41.58;;
41167;SDS011;26906;45.658;9.272;2022-12-07T20:54:18;60.58;;;42.35;;
41167;SDS011;26906;45.658;9.272;2022-12-07T20:56:43;60.47;;;43.22;;
41167;SDS011;26906;45.658;9.272;2022-12-07T20:59:10;67.90;;;44.53;;
41167;SDS011;26906;45.658;9.272;2022-12-07T21:01:37;63.45;;;43.08;;
41167;SDS011;26906;45.658;9.272;2022-12-07T21:04:04;61.58;;;43.03;;
41167;SDS011;26906;45.658;9.272;2022-12-07T21:06:30;66.88;;;45.20;;
41167;SDS011;26906;45.658;9.272;2022-12-07T21:08:57;63.72;;;45.65;;
41167;SDS011;26906;45.658;9.272;2022-12-07T21:11:24;73.75;;;46.60;;
41167;SDS011;26906;45.658;9.272;2022-12-07T21:13:51;67.40;;;45.28;;
41167;SDS011;26906;45.658;9.272;2022-12-07T21:16:19;69.53;;;47.70;;
41167;SDS011;26906;45.658;9.272;2022-12-07T21:18:50;80.07;;;53.08;;
41167;SDS011;26906;45.658;9.272;2022-12-07T21:21:18;69.57;;;47.78;;
41167;SDS011;26906;45.658;9.272;2022-12-07T21:23:44;74.20;;;47.45;;
41167;SDS011;26906;45.658;9.272;2022-12-07T21:26:15;71.65;;;47.28;;
41167;SDS011;26906;45.658;9.272;2022-12-07T21:28:43;68.88;;;45.90;;
